Time;durP1;ratioP1;P1;durP2;ratioP2;P2;SDS_P1;SDS_P2;PMS_P1;PMS_P2;Temp;Humidity;BMP_temperature;BMP_pressure;BME280_temperature;BME280_humidity;BME280_pressure;Samples;Min_cycle;Max_cycle;Signal;HPM_P1;HPM_P2
2023/11/21 00:00:00;;;;;;;9.20;7.57;;;10.60;99.90;;;;;;4977884;28;20468;-69
2023/11/21 00:02:28;;;;;;;11.50;9.20;;;10.60;99.90;;;;;;4977804;28;20959;-69
2023/11/21 00:04:55;;;;;;;9.70;8.77;;;10.50;99.90;;;;;;4976630;28;20520;-69
2023/11/21 00:07:22;;;;;;;10.33;9.30;;;10.50;99.90;;;;;;4977208;28;20453;-69
2023/11/21 00:09:49;;;;;;;11.63;8.00;;;10.50;99.90;;;;;;4976992;28;20520;-69
2023/11/21 00:12:18;;;;;;;9.37;7.87;;;10.60;99.90;;;;;;4977086;28;20457;-70
2023/11/21 00:14:46;;;;;;;13.10;9.67;;;10.60;99.90;;;;;;4976687;28;20445;-69
2023/11/21 00:17:13;;;;;;;9.83;8.83;;;10.70;99.90;;;;;;4976383;28;20438;-70
2023/11/21 00:19:40;;;;;;;10.43;8.80;;;10.70;99.90;;;;;;4976533;28;20469;-70
2023/11/21 00:22:07;;;;;;;12.50;9.20;;;10.70;99.90;;;;;;4976595;28;20456;-69
2023/11/21 00:24:34;;;;;;;11.37;9.23;;;10.70;99.90;;;;;;4976739;28;20449;-69
2023/11/21 00:27:00;;;;;;;11.30;9.67;;;10.70;99.90;;;;;;4976471;28;20449;-70
2023/11/21 00:29:27;;;;;;;9.03;8.23;;;10.80;99.90;;;;;;4976240;28;20472;-69
2023/11/21 00:31:55;;;;;;;11.30;8.70;;;10.80;99.90;;;;;;4975936;28;20457;-70
2023/11/21 00:34:22;;;;;;;9.93;8.80;;;10.80;99.90;;;;;;4975891;28;20456;-69
2023/11/21 00:36:49;;;;;;;10.83;9.13;;;10.80;99.90;;;;;;4976023;28;20448;-70
2023/11/21 00:39:16;;;;;;;11.43;8.90;;;10.80;99.90;;;;;;4975912;28;20564;-70
2023/11/21 00:41:44;;;;;;;10.00;8.90;;;10.70;99.90;;;;;;4975711;28;20958;-69
2023/11/21 00:44:12;;;;;;;10.03;9.10;;;10.70;99.90;;;;;;4976021;28;20504;-69
2023/11/21 00:46:39;;;;;;;11.70;9.97;;;10.70;99.90;;;;;;4958567;28;20571;-69
2023/11/21 00:49:09;;;;;;;12.20;9.53;;;10.70;99.90;;;;;;4975859;28;20469;-69
2023/11/21 00:51:37;;;;;;;9.50;8.40;;;10.70;99.90;;;;;;4976083;28;20460;-70
2023/11/21 00:54:06;;;;;;;8.83;7.90;;;10.60;99.90;;;;;;4975885;28;20479;-69
2023/11/21 00:56:33;;;;;;;8.70;7.40;;;10.60;99.90;;;;;;4975887;28;20456;-69
2023/11/21 00:59:00;;;;;;;9.07;8.17;;;10.60;99.90;;;;;;4975766;28;20476;-69
2023/11/21 01:01:27;;;;;;;9.87;7.73;;;10.60;99.90;;;;;;4974856;28;20441;-70
2023/11/21 01:03:54;;;;;;;11.10;7.13;;;10.50;99.90;;;;;;4975562;28;20457;-70
2023/11/21 01:06:22;;;;;;;10.43;7.27;;;10.50;99.90;;;;;;4975335;28;20508;-69
2023/11/21 01:08:48;;;;;;;8.80;7.83;;;10.50;99.90;;;;;;4975371;28;20441;-69
2023/11/21 01:11:15;;;;;;;9.13;8.20;;;10.50;99.90;;;;;;4974986;28;20456;-69
2023/11/21 01:13:44;;;;;;;9.40;8.50;;;10.50;99.90;;;;;;4975631;28;20449;-69
2023/11/21 01:16:11;;;;;;;13.53;9.57;;;10.50;99.90;;;;;;4975058;28;20850;-69
2023/11/21 01:18:38;;;;;;;11.63;9.47;;;10.40;99.90;;;;;;4974865;28;20943;-69
2023/11/21 01:21:05;;;;;;;11.80;8.90;;;10.40;99.90;;;;;;4975320;28;20456;-69
2023/11/21 01:23:41;;;;;;;10.80;8.73;;;10.40;99.90;;;;;;4975300;28;20449;-69
2023/11/21 01:26:09;;;;;;;14.77;8.40;;;10.40;99.90;;;;;;4975392;28;20477;-69
2023/11/21 01:28:36;;;;;;;10.93;8.07;;;10.40;99.90;;;;;;4975335;28;20453;-69
2023/11/21 01:31:02;;;;;;;10.33;8.40;;;10.40;99.90;;;;;;4973689;28;20877;-69
2023/11/21 01:33:29;;;;;;;9.97;8.97;;;10.30;99.90;;;;;;4975820;28;20441;-71
2023/11/21 01:35:56;;;;;;;9.73;8.73;;;10.30;99.90;;;;;;4976035;28;20445;-70
2023/11/21 01:38:23;;;;;;;12.27;9.27;;;10.20;99.90;;;;;;4975470;28;20445;-69
2023/11/21 01:40:51;;;;;;;12.17;8.70;;;10.20;99.90;;;;;;4975218;28;20465;-69
2023/11/21 01:43:18;;;;;;;10.27;9.00;;;10.10;99.90;;;;;;4974902;28;20962;-70
2023/11/21 01:45:46;;;;;;;10.50;8.30;;;10.10;99.90;;;;;;4974952;28;20488;-69
2023/11/21 01:48:16;;;;;;;11.70;9.73;;;10.10;99.90;;;;;;4973855;28;20448;-70
2023/11/21 01:50:44;;;;;;;17.80;10.70;;;10.10;99.90;;;;;;4975173;28;20460;-70
2023/11/21 01:53:13;;;;;;;12.73;11.43;;;10.00;99.90;;;;;;4975035;28;20441;-69
2023/11/21 01:55:42;;;;;;;17.50;13.30;;;10.10;99.90;;;;;;4975223;28;20476;-71
2023/11/21 01:58:12;;;;;;;22.20;13.93;;;10.00;99.90;;;;;;4973665;28;20947;-71
2023/11/21 02:00:39;;;;;;;20.00;13.90;;;10.00;99.90;;;;;;4975345;28;20599;-71
2023/11/21 02:03:06;;;;;;;18.07;13.57;;;10.00;99.90;;;;;;4975302;28;20460;-71
2023/11/21 02:05:33;;;;;;;17.90;13.80;;;10.00;99.90;;;;;;4975260;28;20490;-70
2023/11/21 02:08:00;;;;;;;16.80;13.17;;;10.00;99.90;;;;;;4982652;28;20429;-71
2023/11/21 02:10:27;;;;;;;23.27;14.20;;;10.00;99.90;;;;;;4981655;28;20469;-71
2023/11/21 02:12:54;;;;;;;15.63;13.73;;;10.00;99.90;;;;;;4978469;28;20460;-71
2023/11/21 02:15:23;;;;;;;18.03;14.90;;;10.00;99.90;;;;;;4977225;28;20974;-71
2023/11/21 02:17:51;;;;;;;20.53;14.33;;;10.00;99.90;;;;;;4976489;28;20821;-70
2023/11/21 02:20:19;;;;;;;17.70;14.50;;;10.00;99.90;;;;;;4977039;28;20539;-71
2023/11/21 02:22:52;;;;;;;17.60;15.70;;;10.10;99.90;;;;;;4977690;28;20917;-71
2023/11/21 02:25:18;;;;;;;17.83;14.30;;;10.10;99.90;;;;;;4979196;28;20471;-71
2023/11/21 02:27:48;;;;;;;17.07;14.93;;;10.10;99.90;;;;;;4979131;28;20456;-70
2023/11/21 02:30:16;;;;;;;20.03;16.03;;;10.10;99.90;;;;;;4979027;28;20919;-71
2023/11/21 02:32:43;;;;;;;18.07;14.70;;;10.10;99.90;;;;;;4979315;28;20449;-71
2023/11/21 02:35:12;;;;;;;19.83;15.10;;;10.20;99.90;;;;;;4978841;28;20853;-71
2023/11/21 02:37:38;;;;;;;22.30;14.80;;;10.20;99.90;;;;;;4979027;28;20511;-71
2023/11/21 02:40:10;;;;;;;21.97;14.43;;;10.20;99.90;;;;;;4979115;28;20472;-71
2023/11/21 02:42:36;;;;;;;21.10;16.00;;;10.20;99.90;;;;;;4978922;28;20911;-71
2023/11/21 02:45:05;;;;;;;18.67;15.07;;;10.30;99.90;;;;;;4978299;28;20456;-71
2023/11/21 02:47:32;;;;;;;22.50;14.80;;;10.30;99.90;;;;;;4977842;28;21063;-71
2023/11/21 02:49:58;;;;;;;19.77;16.20;;;10.30;99.90;;;;;;4977980;28;20472;-70
2023/11/21 02:52:25;;;;;;;21.63;15.90;;;10.30;99.90;;;;;;4977914;28;20453;-71
2023/11/21 02:54:52;;;;;;;19.27;14.40;;;10.30;99.90;;;;;;4977117;28;20453;-70
2023/11/21 02:57:20;;;;;;;28.00;17.43;;;10.30;99.90;;;;;;4978074;28;20532;-71
2023/11/21 02:59:47;;;;;;;23.27;16.40;;;10.40;99.90;;;;;;4977692;28;20473;-72
2023/11/21 03:02:15;;;;;;;21.80;15.90;;;10.40;99.90;;;;;;4976511;28;20912;-72
2023/11/21 03:04:42;;;;;;;24.47;17.67;;;10.40;99.90;;;;;;4978442;28;20544;-71
2023/11/21 03:07:09;;;;;;;22.00;16.23;;;10.40;99.90;;;;;;4977180;28;20481;-71
2023/11/21 03:09:36;;;;;;;21.00;15.17;;;10.30;99.90;;;;;;4982792;28;20468;-71
2023/11/21 03:12:03;;;;;;;22.20;15.93;;;10.40;99.90;;;;;;4983118;28;20449;-72
2023/11/21 03:14:31;;;;;;;22.60;16.83;;;10.40;99.90;;;;;;4982567;28;20445;-72
2023/11/21 03:16:59;;;;;;;24.40;16.30;;;10.40;99.90;;;;;;4982976;28;20448;-72
2023/11/21 03:19:25;;;;;;;19.73;16.00;;;10.40;99.90;;;;;;4981503;28;20904;-72
2023/11/21 03:21:53;;;;;;;25.40;16.00;;;10.50;99.90;;;;;;4981063;28;20456;-72
2023/11/21 03:24:20;;;;;;;26.23;18.00;;;10.50;99.90;;;;;;4980732;28;20496;-72
2023/11/21 03:26:47;;;;;;;23.50;16.07;;;10.40;99.90;;;;;;4978783;28;20488;-71
2023/11/21 03:29:14;;;;;;;25.47;16.10;;;10.40;99.90;;;;;;4979019;28;20630;-72
2023/11/21 03:31:42;;;;;;;23.17;15.80;;;10.40;99.90;;;;;;4979898;28;20449;-71
2023/11/21 03:34:15;;;;;;;22.07;16.97;;;10.40;99.90;;;;;;4978423;28;20453;-72
2023/11/21 03:36:42;;;;;;;22.37;15.13;;;10.40;99.90;;;;;;4978099;28;20831;-72
2023/11/21 03:39:09;;;;;;;23.17;16.23;;;10.40;99.90;;;;;;4977944;28;20501;-71
2023/11/21 03:41:36;;;;;;;21.77;16.87;;;10.40;99.90;;;;;;4977609;28;20457;-71
2023/11/21 03:44:03;;;;;;;23.80;17.00;;;10.40;99.90;;;;;;4977732;28;20445;-71
2023/11/21 03:46:30;;;;;;;21.60;15.70;;;10.40;99.90;;;;;;4977631;28;21013;-72
2023/11/21 03:48:58;;;;;;;17.53;14.03;;;10.30;99.90;;;;;;4977801;28;20468;-71
2023/11/21 03:51:25;;;;;;;19.10;14.40;;;10.40;99.90;;;;;;4977533;28;20452;-72
2023/11/21 03:53:52;;;;;;;19.40;14.97;;;10.40;99.90;;;;;;4978015;28;20456;-72
2023/11/21 03:56:21;;;;;;;25.70;16.60;;;10.40;99.90;;;;;;4976968;28;20958;-72
2023/11/21 03:58:50;;;;;;;22.40;14.37;;;10.40;99.90;;;;;;4977243;28;20449;-72
2023/11/21 04:01:22;;;;;;;22.73;14.90;;;10.40;99.90;;;;;;4977146;28;20473;-72
2023/11/21 04:03:49;;;;;;;21.93;17.27;;;10.40;99.90;;;;;;4978144;28;20469;-72
2023/11/21 04:06:18;;;;;;;20.07;15.53;;;10.40;99.90;;;;;;4976937;28;20489;-72
2023/11/21 04:08:45;;;;;;;20.77;15.03;;;10.40;99.90;;;;;;4977058;28;20535;-72
2023/11/21 04:11:12;;;;;;;23.10;15.87;;;10.40;99.90;;;;;;4976889;28;20445;-72
2023/11/21 04:13:39;;;;;;;21.00;15.20;;;10.40;99.90;;;;;;4975660;28;20485;-72
2023/11/21 04:16:07;;;;;;;22.40;16.37;;;10.40;99.90;;;;;;4976483;28;20453;-72
2023/11/21 04:18:35;;;;;;;27.00;17.13;;;10.40;99.90;;;;;;4977490;28;20448;-71
2023/11/21 04:21:02;;;;;;;32.17;20.40;;;10.40;99.90;;;;;;4960243;28;20449;-72
2023/11/21 04:23:31;;;;;;;32.67;20.73;;;10.30;99.90;;;;;;4976894;28;20496;-72
2023/11/21 04:25:58;;;;;;;34.27;22.70;;;10.40;99.90;;;;;;4975478;28;20456;-72
2023/11/21 04:28:25;;;;;;;39.87;24.03;;;10.40;99.90;;;;;;4985766;28;20454;-72
2023/11/21 04:30:53;;;;;;;34.30;23.30;;;10.40;99.90;;;;;;4981355;28;20473;-72
2023/11/21 04:33:21;;;;;;;36.70;24.07;;;10.30;99.90;;;;;;4977691;28;20477;-72
2023/11/21 04:35:48;;;;;;;36.73;23.87;;;10.30;99.90;;;;;;4977906;28;20445;-72
2023/11/21 04:38:15;;;;;;;32.93;22.90;;;10.30;99.90;;;;;;4977372;28;20543;-72
2023/11/21 04:40:43;;;;;;;34.40;22.00;;;10.30;99.90;;;;;;4975341;28;20504;-72
2023/11/21 04:43:10;;;;;;;29.03;19.90;;;10.30;99.90;;;;;;4976519;28;20445;-72
2023/11/21 04:45:37;;;;;;;31.40;19.30;;;10.30;99.90;;;;;;4975888;28;20445;-72
2023/11/21 04:48:05;;;;;;;29.43;18.43;;;10.30;99.90;;;;;;4975809;28;20485;-72
2023/11/21 04:50:32;;;;;;;27.67;17.70;;;10.30;99.90;;;;;;4976547;28;20465;-71
2023/11/21 04:52:58;;;;;;;27.00;19.33;;;10.30;99.90;;;;;;4976511;28;20504;-72
2023/11/21 04:55:27;;;;;;;31.63;20.23;;;10.30;99.90;;;;;;4975891;28;20818;-71
2023/11/21 04:57:56;;;;;;;29.00;18.90;;;10.30;99.90;;;;;;4975274;28;20571;-72
2023/11/21 05:00:23;;;;;;;27.97;17.23;;;10.30;99.90;;;;;;4976231;28;20471;-71
2023/11/21 05:02:50;;;;;;;25.27;17.47;;;10.20;99.90;;;;;;4976193;28;20499;-71
2023/11/21 05:05:16;;;;;;;23.40;17.03;;;10.20;99.90;;;;;;4975962;28;20445;-71
2023/11/21 05:07:43;;;;;;;25.10;18.27;;;10.20;99.90;;;;;;4976116;28;20481;-71
2023/11/21 05:10:11;;;;;;;25.10;17.53;;;10.20;99.90;;;;;;4975711;28;20472;-71
2023/11/21 05:12:38;;;;;;;29.53;17.90;;;10.20;99.90;;;;;;4974768;28;20532;-72
2023/11/21 05:15:09;;;;;;;30.43;18.57;;;10.20;99.90;;;;;;4975364;28;20458;-71
2023/11/21 05:17:36;;;;;;;29.13;18.37;;;10.10;99.90;;;;;;4974553;28;20532;-71
2023/11/21 05:20:08;;;;;;;34.80;20.40;;;10.10;99.90;;;;;;4975426;28;20508;-71
2023/11/21 05:22:35;;;;;;;36.87;21.93;;;10.10;99.90;;;;;;4974406;28;20879;-71
2023/11/21 05:25:03;;;;;;;33.13;21.30;;;10.10;99.90;;;;;;4975555;28;20448;-71
2023/11/21 05:27:30;;;;;;;36.80;20.63;;;10.10;99.90;;;;;;4974187;28;20481;-71
2023/11/21 05:29:57;;;;;;;38.53;22.93;;;10.10;99.90;;;;;;4974104;28;20904;-71
2023/11/21 05:32:26;;;;;;;38.93;19.93;;;10.10;99.90;;;;;;4975268;28;20449;-71
2023/11/21 05:34:53;;;;;;;44.83;22.77;;;10.10;99.90;;;;;;4975061;28;20445;-72
2023/11/21 05:37:20;;;;;;;36.07;22.20;;;10.10;99.90;;;;;;4974957;28;20441;-71
2023/11/21 05:39:47;;;;;;;41.57;24.53;;;10.20;99.90;;;;;;4975039;28;20491;-71
2023/11/21 05:42:13;;;;;;;39.90;23.10;;;10.10;99.90;;;;;;4975025;28;20441;-72
2023/11/21 05:44:43;;;;;;;44.70;24.00;;;10.20;99.90;;;;;;4975092;28;20472;-72
2023/11/21 05:47:10;;;;;;;38.97;23.63;;;10.20;99.90;;;;;;4975103;28;20513;-71
2023/11/21 05:49:38;;;;;;;36.30;22.70;;;10.20;99.90;;;;;;4957771;28;20465;-72
2023/11/21 05:52:06;;;;;;;34.70;21.50;;;10.20;99.90;;;;;;4974925;28;20454;-72
2023/11/21 05:54:33;;;;;;;40.33;22.63;;;10.20;99.90;;;;;;4977146;28;20453;-72
2023/11/21 05:57:00;;;;;;;39.10;23.80;;;10.20;99.90;;;;;;4974808;28;20453;-72
2023/11/21 05:59:27;;;;;;;42.63;22.50;;;10.20;99.90;;;;;;4974776;28;20921;-72
2023/11/21 06:01:54;;;;;;;37.63;21.80;;;10.20;99.90;;;;;;4974734;28;20457;-72
2023/11/21 06:04:23;;;;;;;39.80;23.87;;;10.20;99.90;;;;;;4974750;28;20442;-71
2023/11/21 06:06:52;;;;;;;34.80;22.83;;;10.20;99.90;;;;;;4974734;28;20481;-72
2023/11/21 06:09:19;;;;;;;42.33;22.20;;;10.20;99.90;;;;;;4974672;28;20508;-72
2023/11/21 06:11:46;;;;;;;42.37;21.07;;;10.20;99.90;;;;;;4974804;28;20457;-72
2023/11/21 06:14:12;;;;;;;41.10;22.90;;;10.20;99.90;;;;;;4974454;28;20453;-72
2023/11/21 06:16:40;;;;;;;37.60;22.97;;;10.20;99.90;;;;;;4973000;28;20485;-72
2023/11/21 06:19:07;;;;;;;43.47;22.70;;;10.20;99.90;;;;;;4974837;28;20568;-72
2023/11/21 06:21:35;;;;;;;37.30;22.00;;;10.20;99.90;;;;;;4974379;28;20456;-72
2023/11/21 06:24:03;;;;;;;32.70;22.30;;;10.30;99.90;;;;;;4974714;28;20500;-72
2023/11/21 06:26:31;;;;;;;32.00;19.97;;;10.20;99.90;;;;;;4974260;28;20445;-71
2023/11/21 06:28:58;;;;;;;36.90;22.67;;;10.30;99.90;;;;;;4974376;28;20561;-72
2023/11/21 06:31:25;;;;;;;41.00;21.77;;;10.30;99.90;;;;;;4974491;28;20444;-72
2023/11/21 06:33:52;;;;;;;32.07;21.50;;;10.20;99.90;;;;;;4974086;28;20456;-72
2023/11/21 06:36:19;;;;;;;33.53;22.40;;;10.20;99.90;;;;;;4974319;28;20445;-72
2023/11/21 06:38:46;;;;;;;33.57;22.77;;;10.20;99.90;;;;;;4974039;28;20449;-71
2023/11/21 06:41:15;;;;;;;30.47;21.90;;;10.20;99.90;;;;;;4973358;28;20483;-71
2023/11/21 06:43:44;;;;;;;40.60;23.17;;;10.20;99.90;;;;;;4985073;28;20484;-71
2023/11/21 06:46:14;;;;;;;40.80;23.90;;;10.20;99.90;;;;;;4978588;28;20445;-71
2023/11/21 06:48:41;;;;;;;42.77;24.00;;;10.10;99.90;;;;;;4976243;28;20520;-71
2023/11/21 06:51:08;;;;;;;39.67;24.03;;;10.10;99.90;;;;;;4975145;28;20457;-71
2023/11/21 06:53:35;;;;;;;36.80;22.10;;;10.10;99.90;;;;;;4975286;28;20445;-72
2023/11/21 06:56:01;;;;;;;34.10;22.87;;;10.10;99.90;;;;;;4975232;28;20536;-71
2023/11/21 06:58:30;;;;;;;38.57;24.50;;;10.10;99.90;;;;;;4974013;28;20917;-72
2023/11/21 07:00:58;;;;;;;32.37;23.10;;;10.10;99.90;;;;;;4975487;28;20468;-71
2023/11/21 07:03:26;;;;;;;38.93;23.13;;;10.10;99.90;;;;;;4974800;28;20448;-72
2023/11/21 07:05:52;;;;;;;37.57;22.03;;;10.10;99.90;;;;;;4973376;28;20456;-71
2023/11/21 07:08:19;;;;;;;41.47;23.77;;;10.10;99.90;;;;;;4975701;28;20524;-71
2023/11/21 07:10:47;;;;;;;51.67;26.00;;;10.10;99.90;;;;;;4977629;28;20480;-72
2023/11/21 07:13:13;;;;;;;40.93;25.43;;;10.20;99.90;;;;;;4977774;28;20523;-71
2023/11/21 07:15:43;;;;;;;45.13;26.03;;;10.20;99.90;;;;;;4976356;28;20453;-71
2023/11/21 07:18:11;;;;;;;44.80;26.30;;;10.20;99.90;;;;;;4977760;28;20499;-71
2023/11/21 07:20:38;;;;;;;49.43;25.50;;;10.20;99.90;;;;;;4977466;28;20560;-71
2023/11/21 07:23:05;;;;;;;48.87;26.43;;;10.20;99.90;;;;;;4977540;28;20456;-71
2023/11/21 07:25:33;;;;;;;42.03;24.90;;;10.20;99.90;;;;;;4977108;28;20455;-71
2023/11/21 07:28:00;;;;;;;45.60;26.40;;;10.20;99.90;;;;;;4977354;28;20484;-71
2023/11/21 07:30:27;;;;;;;53.47;27.03;;;10.30;99.90;;;;;;4977224;28;20468;-71
2023/11/21 07:32:55;;;;;;;47.73;26.37;;;10.30;99.90;;;;;;4977382;28;20445;-71
2023/11/21 07:35:22;;;;;;;45.73;25.13;;;10.30;99.90;;;;;;4976817;28;20474;-71
2023/11/21 07:37:49;;;;;;;46.70;26.03;;;10.30;99.90;;;;;;4976141;28;20441;-71
2023/11/21 07:40:16;;;;;;;47.93;24.27;;;10.30;99.90;;;;;;4977225;28;20465;-71
2023/11/21 07:42:43;;;;;;;45.00;24.30;;;10.30;99.90;;;;;;4977207;28;20786;-71
2023/11/21 07:45:11;;;;;;;38.63;23.10;;;10.30;99.90;;;;;;4977510;28;20483;-71
2023/11/21 07:47:38;;;;;;;44.17;22.23;;;10.30;99.90;;;;;;4977128;28;20551;-72
2023/11/21 07:50:08;;;;;;;43.77;22.80;;;10.30;99.90;;;;;;4976720;28;21134;-71
2023/11/21 07:52:35;;;;;;;50.50;24.40;;;10.30;99.90;;;;;;4977240;28;20501;-71
2023/11/21 07:55:02;;;;;;;47.10;22.80;;;10.30;99.90;;;;;;4976569;28;20445;-71
2023/11/21 07:57:28;;;;;;;42.43;21.80;;;10.30;99.90;;;;;;4976846;28;20445;-71
2023/11/21 07:59:56;;;;;;;42.97;20.93;;;10.30;99.90;;;;;;4975494;28;20556;-72
2023/11/21 08:02:22;;;;;;;44.33;22.20;;;10.30;99.90;;;;;;4976859;28;20445;-71
2023/11/21 08:04:50;;;;;;;42.60;22.97;;;10.30;99.90;;;;;;4976673;28;20480;-72
2023/11/21 08:07:18;;;;;;;44.93;21.07;;;10.30;99.90;;;;;;4976402;28;20481;-71
2023/11/21 08:09:46;;;;;;;44.03;21.83;;;10.30;99.90;;;;;;4976500;28;20465;-71
2023/11/21 08:12:14;;;;;;;46.07;21.20;;;10.30;99.90;;;;;;4976631;28;20460;-71
2023/11/21 08:14:41;;;;;;;44.60;23.37;;;10.30;99.90;;;;;;4976760;28;20453;-71
2023/11/21 08:17:10;;;;;;;45.93;21.17;;;10.30;99.90;;;;;;4975900;28;20457;-72
2023/11/21 08:19:36;;;;;;;48.23;21.77;;;10.30;99.90;;;;;;4974349;28;20473;-72
2023/11/21 08:22:04;;;;;;;44.57;20.67;;;10.30;99.90;;;;;;4976062;28;20802;-71
2023/11/21 08:24:32;;;;;;;43.47;22.90;;;10.30;99.90;;;;;;4976411;28;20449;-72
2023/11/21 08:26:59;;;;;;;42.27;20.40;;;10.40;99.90;;;;;;4976252;28;20457;-72
2023/11/21 08:29:26;;;;;;;41.17;19.20;;;10.40;99.90;;;;;;4975787;28;20867;-72
2023/11/21 08:31:53;;;;;;;39.03;20.93;;;10.50;99.90;;;;;;4975976;28;20457;-72
2023/11/21 08:34:20;;;;;;;41.03;19.13;;;10.50;99.90;;;;;;4976186;28;20453;-72
2023/11/21 08:36:46;;;;;;;33.57;17.93;;;10.60;99.90;;;;;;4975933;28;20453;-72
2023/11/21 08:39:16;;;;;;;33.53;17.13;;;10.60;99.90;;;;;;4975906;28;20875;-72
2023/11/21 08:41:44;;;;;;;42.37;21.40;;;10.70;99.90;;;;;;4975561;28;20507;-72
2023/11/21 08:44:11;;;;;;;39.50;20.20;;;10.80;99.90;;;;;;4975991;28;20480;-72
2023/11/21 08:46:39;;;;;;;40.67;20.07;;;10.80;99.90;;;;;;4975686;28;20819;-72
2023/11/21 08:49:06;;;;;;;42.20;21.90;;;10.80;99.90;;;;;;4975650;28;20862;-72
2023/11/21 08:51:33;;;;;;;37.70;19.80;;;10.90;99.90;;;;;;4975819;28;20449;-72
2023/11/21 08:54:02;;;;;;;33.43;18.97;;;10.90;99.90;;;;;;4975425;28;20946;-72
2023/11/21 08:56:29;;;;;;;38.30;19.80;;;11.00;99.90;;;;;;4975909;28;20502;-72
2023/11/21 08:58:57;;;;;;;33.10;18.90;;;11.00;99.90;;;;;;4975861;28;20477;-72
2023/11/21 09:01:24;;;;;;;34.20;19.03;;;11.00;99.90;;;;;;4986936;28;20453;-73
2023/11/21 09:03:51;;;;;;;36.47;18.57;;;11.00;99.90;;;;;;4979629;28;20876;-72
2023/11/21 09:06:19;;;;;;;36.90;19.77;;;11.00;99.90;;;;;;4976891;28;20449;-72
2023/11/21 09:08:46;;;;;;;31.90;18.60;;;11.10;99.90;;;;;;4976227;28;20508;-72
2023/11/21 09:11:13;;;;;;;31.60;18.30;;;11.20;99.90;;;;;;4975442;28;20960;-72
2023/11/21 09:13:40;;;;;;;34.80;20.17;;;11.30;99.90;;;;;;4974830;28;20535;-72
2023/11/21 09:16:09;;;;;;;38.00;20.60;;;11.40;99.90;;;;;;4975373;28;20457;-72
2023/11/21 09:18:36;;;;;;;33.97;18.90;;;11.50;99.90;;;;;;4975569;28;20441;-72
2023/11/21 09:21:04;;;;;;;36.00;19.50;;;11.50;99.90;;;;;;4974548;28;20496;-72
2023/11/21 09:23:31;;;;;;;31.53;18.03;;;11.60;99.90;;;;;;4975390;28;20495;-71
2023/11/21 09:25:59;;;;;;;34.53;18.87;;;11.60;99.90;;;;;;4975081;28;20955;-72
2023/11/21 09:28:27;;;;;;;42.23;22.10;;;11.70;99.90;;;;;;4975370;28;20485;-72
2023/11/21 09:30:53;;;;;;;33.87;21.33;;;11.70;99.90;;;;;;4974559;28;20500;-71
2023/11/21 09:33:22;;;;;;;35.60;19.23;;;11.70;99.90;;;;;;4975090;28;20445;-71
2023/11/21 09:35:50;;;;;;;38.97;20.87;;;11.70;99.90;;;;;;4974137;28;20872;-73
2023/11/21 09:38:17;;;;;;;39.63;20.60;;;11.80;99.90;;;;;;4975471;28;20449;-72
2023/11/21 09:40:44;;;;;;;36.33;19.87;;;11.80;99.90;;;;;;4975153;28;20469;-72
2023/11/21 09:43:17;;;;;;;46.00;21.20;;;11.80;99.90;;;;;;4975107;28;20449;-72
2023/11/21 09:45:46;;;;;;;44.73;21.00;;;11.80;99.90;;;;;;4973652;28;20445;-72
2023/11/21 09:48:14;;;;;;;34.13;17.03;;;11.80;99.90;;;;;;4974490;28;21002;-72
2023/11/21 09:50:44;;;;;;;37.90;20.27;;;11.80;99.90;;;;;;4974599;28;20468;-72
2023/11/21 09:53:15;;;;;;;33.50;19.27;;;11.80;99.90;;;;;;4974873;28;20446;-72
2023/11/21 09:55:44;;;;;;;32.10;18.30;;;11.90;99.90;;;;;;4974750;28;20847;-72
2023/11/21 09:58:12;;;;;;;34.13;17.60;;;11.90;99.90;;;;;;4974610;28;20441;-72
2023/11/21 10:00:41;;;;;;;30.57;18.60;;;12.00;99.90;;;;;;4974548;28;20465;-72
2023/11/21 10:03:09;;;;;;;25.67;16.73;;;12.10;99.90;;;;;;4974863;28;20452;-72
2023/11/21 10:05:35;;;;;;;33.00;18.80;;;12.20;99.90;;;;;;4974767;28;20508;-72
2023/11/21 10:08:08;;;;;;;29.17;18.47;;;12.20;99.90;;;;;;4974628;28;20492;-72
2023/11/21 10:10:36;;;;;;;30.90;17.90;;;12.30;99.90;;;;;;4974532;28;20469;-72
2023/11/21 10:13:06;;;;;;;31.57;17.10;;;12.30;99.90;;;;;;4974266;28;21038;-72
2023/11/21 10:15:35;;;;;;;30.90;18.10;;;12.40;99.90;;;;;;4974513;28;20489;-73
2023/11/21 10:18:04;;;;;;;32.43;18.40;;;12.40;99.90;;;;;;4974493;28;20445;-72
2023/11/21 10:20:33;;;;;;;26.70;16.07;;;12.40;99.90;;;;;;4974572;28;20894;-72
2023/11/21 10:23:01;;;;;;;27.20;16.37;;;12.40;99.90;;;;;;4974219;28;20543;-72
2023/11/21 10:25:29;;;;;;;26.23;15.80;;;12.40;99.90;;;;;;4974535;28;20471;-72
2023/11/21 10:28:00;;;;;;;28.27;18.03;;;12.40;99.90;;;;;;4974142;28;20445;-72
2023/11/21 10:30:32;;;;;;;27.37;16.60;;;12.40;99.90;;;;;;4974183;28;20971;-72
2023/11/21 10:33:02;;;;;;;35.73;17.93;;;12.50;99.90;;;;;;4973288;28;20449;-72
2023/11/21 10:35:50;;;;;;;26.50;16.27;;;12.50;99.90;;;;;;4974380;28;20532;-72
2023/11/21 10:38:17;;;;;;;26.40;14.97;;;12.50;99.90;;;;;;4973154;28;20500;-72
2023/11/21 10:40:46;;;;;;;31.13;16.60;;;12.40;99.90;;;;;;4956998;28;20994;-72
2023/11/21 10:43:14;;;;;;;26.93;14.83;;;12.50;99.90;;;;;;4975802;28;20449;-72
2023/11/21 10:45:42;;;;;;;27.10;16.13;;;12.40;99.90;;;;;;4978209;28;20460;-72
2023/11/21 10:48:10;;;;;;;29.27;16.00;;;12.40;99.90;;;;;;4978054;28;20497;-72
2023/11/21 10:50:38;;;;;;;32.10;16.17;;;12.30;99.90;;;;;;4978026;28;20512;-72
2023/11/21 10:53:05;;;;;;;27.67;15.33;;;12.30;99.90;;;;;;4978447;28;20449;-72
2023/11/21 10:55:33;;;;;;;26.83;17.20;;;12.30;99.90;;;;;;4978712;28;20955;-72
2023/11/21 10:58:04;;;;;;;29.10;16.50;;;12.40;99.90;;;;;;4980924;28;20445;-72
2023/11/21 11:00:32;;;;;;;35.73;17.03;;;12.40;99.90;;;;;;4984076;28;20477;-72
2023/11/21 11:03:00;;;;;;;30.43;16.23;;;12.40;99.90;;;;;;4981466;28;20494;-72
2023/11/21 11:05:28;;;;;;;23.53;14.90;;;12.40;99.90;;;;;;4982576;28;20464;-72
2023/11/21 11:08:03;;;;;;;29.70;13.83;;;12.40;99.90;;;;;;4981416;28;20480;-72
2023/11/21 11:10:30;;;;;;;30.90;13.27;;;12.50;99.90;;;;;;4980041;28;20571;-72
2023/11/21 11:12:58;;;;;;;25.50;14.20;;;12.50;99.90;;;;;;4979242;28;20476;-72
2023/11/21 11:15:27;;;;;;;27.70;15.43;;;12.50;99.90;;;;;;4982861;28;20488;-72
2023/11/21 11:17:57;;;;;;;23.50;13.47;;;12.50;99.90;;;;;;4987630;28;20434;-72
2023/11/21 11:20:26;;;;;;;33.37;16.60;;;12.60;99.90;;;;;;4980465;28;20509;-72
2023/11/21 11:23:08;;;;;;;30.77;15.40;;;12.60;99.90;;;;;;4981403;28;20816;-72
2023/11/21 11:25:52;;;;;;;28.33;16.20;;;12.70;99.90;;;;;;4980291;28;20770;-72
2023/11/21 11:28:23;;;;;;;32.03;15.37;;;12.70;99.90;;;;;;4979514;28;20511;-72
2023/11/21 11:31:05;;;;;;;29.63;15.23;;;12.80;99.90;;;;;;4978577;28;20897;-72
2023/11/21 11:33:39;;;;;;;25.53;13.57;;;12.80;99.90;;;;;;4979135;28;20433;-72
2023/11/21 11:36:11;;;;;;;25.93;14.17;;;12.80;99.90;;;;;;4977447;28;20445;-72
2023/11/21 11:38:38;;;;;;;25.27;14.27;;;12.80;99.90;;;;;;4977594;28;20417;-72
2023/11/21 11:41:06;;;;;;;26.77;14.70;;;12.80;99.90;;;;;;4977574;28;20449;-72
2023/11/21 11:43:39;;;;;;;24.73;14.60;;;12.90;99.90;;;;;;4977663;28;20803;-72
2023/11/21 11:46:08;;;;;;;27.77;15.20;;;12.80;99.90;;;;;;4977660;28;20813;-72
2023/11/21 11:48:39;;;;;;;29.23;15.30;;;12.80;99.90;;;;;;4975727;28;20473;-72
2023/11/21 11:51:11;;;;;;;28.73;16.13;;;12.80;99.90;;;;;;4976987;28;21035;-72
2023/11/21 11:53:41;;;;;;;25.87;14.33;;;12.80;99.90;;;;;;4976612;28;20934;-72
2023/11/21 11:56:26;;;;;;;21.63;12.50;;;12.90;99.90;;;;;;4977464;28;20457;-72
2023/11/21 11:58:56;;;;;;;23.23;13.60;;;13.00;99.90;;;;;;4976806;28;20915;-72
2023/11/21 12:01:26;;;;;;;30.83;14.70;;;13.10;99.90;;;;;;4977081;28;20449;-72
2023/11/21 12:04:34;;;;;;;24.37;13.57;;;13.10;99.90;;;;;;4977201;28;20966;-72
2023/11/21 12:07:03;;;;;;;28.53;16.10;;;13.30;99.90;;;;;;4977063;28;20521;-72
2023/11/21 12:09:31;;;;;;;21.77;13.70;;;13.40;99.90;;;;;;4976619;28;20576;-72
2023/11/21 12:11:58;;;;;;;33.13;15.20;;;13.50;99.90;;;;;;4976673;28;20484;-72
2023/11/21 12:14:25;;;;;;;20.40;12.93;;;13.70;99.90;;;;;;4976588;28;20939;-72
2023/11/21 12:16:54;;;;;;;22.70;12.43;;;13.90;99.90;;;;;;4976957;28;20540;-72
2023/11/21 12:19:22;;;;;;;30.77;16.40;;;14.10;99.90;;;;;;4977107;28;20473;-72
2023/11/21 12:21:50;;;;;;;19.03;13.23;;;14.10;99.90;;;;;;4977125;28;20472;-72
2023/11/21 12:24:17;;;;;;;17.60;11.90;;;14.20;99.90;;;;;;4975103;28;20445;-72
2023/11/21 12:26:45;;;;;;;16.77;10.70;;;14.20;99.90;;;;;;4976407;28;20810;-72
2023/11/21 12:29:12;;;;;;;22.90;11.20;;;14.20;99.90;;;;;;4976150;28;20493;-72
2023/11/21 12:31:38;;;;;;;22.33;12.33;;;14.30;99.90;;;;;;4976308;28;20582;-72